Time;durP1;ratioP1;P1;durP2;ratioP2;P2;SDS_P1;SDS_P2;PMS_P1;PMS_P2;Temp;Humidity;BMP_temperature;BMP_pressure;BME280_temperature;BME280_humidity;BME280_pressure;Samples;Min_cycle;Max_cycle;Signal;HPM_P1;HPM_P2
2023/07/18 00:01:20;;;;;;;;;;;;;;;27.34;52.24;99650.94;2498140;27;19922;-78
2023/07/18 00:01:30;;;;;;;;;;;;;;;27.35;53.02;99649.94;355669;27;3330;-78
2023/07/18 00:01:40;;;;;;;;;;;;;;;27.35;52.35;99647.25;353340;28;1300;-78
2023/07/18 00:01:51;;;;;;;;;;;;;;;27.35;51.29;99658.00;351842;28;1201;-78
2023/07/18 00:02:01;;;;;;;;;;;;;;;27.35;51.85;99649.94;350017;28;1267;-78
2023/07/18 00:02:11;;;;;;;;;;;;;;;27.35;51.68;99647.25;350647;28;800;-78
2023/07/18 00:02:21;;;;;;;;;;;;;;;27.35;50.33;99643.72;350517;28;733;-78
2023/07/18 00:02:33;;;;;;;;;;;;;;;27.34;49.79;99644.72;350959;28;796;-78
2023/07/18 00:02:44;;;;;;;;;;;;;;;27.34;50.05;99648.25;350963;28;1372;-78
2023/07/18 00:02:55;;;;;;;;;;;;;;;27.35;51.11;99646.41;349657;28;1446;-78
2023/07/18 00:03:05;;;;;;;;;;;;;;;27.27;50.14;99644.59;350439;28;1349;-79
2023/07/18 00:03:15;;;;;;;;;;;;;;;27.24;49.68;99644.94;350716;28;1240;-78
2023/07/18 00:03:28;;;;;;;;;;;;;;;27.25;49.50;99649.28;351782;28;1246;-78
2023/07/18 00:03:38;;;;;;;;;;;;;;;27.26;49.78;99642.06;350484;28;1357;-78
2023/07/18 00:03:50;;;;;;;;;;;;;;;27.26;51.57;99642.91;350349;28;1158;-78
2023/07/18 00:04:00;;;;;;;;;;;;;;;27.27;50.91;99644.59;349280;28;800;-78
2023/07/18 00:04:10;;;;;;;;;;;;;;;27.27;51.10;99647.28;350332;28;1501;-79
2023/07/18 00:04:21;;;;;;;;;;;;;;;27.26;49.50;99645.59;350835;28;1396;-79
2023/07/18 00:04:31;;;;;;;;;;;;;;;27.26;49.75;99640.22;351848;28;1211;-79
2023/07/18 00:04:41;;;;;;;;;;;;;;;27.27;49.28;99644.59;350276;28;1314;-79
2023/07/18 00:04:52;;;;;;;;;;;;;;;27.27;49.49;99644.59;349016;28;1376;-79
2023/07/18 00:05:02;;;;;;;;;;;;;;;27.30;49.41;99643.38;350280;28;898;-79
2023/07/18 00:05:13;;;;;;;;;;;;;;;27.31;50.64;99639.69;350933;28;1079;-79
2023/07/18 00:05:23;;;;;;;;;;;;;;;27.31;51.69;99637.84;349010;28;1334;-79
2023/07/18 00:05:36;;;;;;;;;;;;;;;27.30;50.99;99633.47;348810;28;1677;-79
2023/07/18 00:05:47;;;;;;;;;;;;;;;27.31;49.97;99645.91;350317;28;1216;-79
2023/07/18 00:05:58;;;;;;;;;;;;;;;27.26;50.10;99642.91;349001;28;808;-79
2023/07/18 00:06:08;;;;;;;;;;;;;;;27.24;49.92;99638.72;348010;28;1281;-79
2023/07/18 00:06:19;;;;;;;;;;;;;;;27.22;49.72;99641.56;348080;28;1400;-79
2023/07/18 00:06:30;;;;;;;;;;;;;;;27.23;49.97;99642.41;349691;28;1487;-79
2023/07/18 00:06:41;;;;;;;;;;;;;;;27.22;51.17;99646.94;349478;28;1319;-79
2023/07/18 00:06:52;;;;;;;;;;;;;;;27.22;51.72;99640.72;348875;28;1419;-79
2023/07/18 00:07:02;;;;;;;;;;;;;;;27.22;51.45;99643.41;348888;28;1191;-78
2023/07/18 00:07:13;;;;;;;;;;;;;;;27.22;51.77;99641.56;347957;28;1205;-78
2023/07/18 00:07:25;;;;;;;;;;;;;;;27.24;51.47;99641.41;347500;28;1239;-78
2023/07/18 00:07:35;;;;;;;;;;;;;;;27.19;50.13;99641.91;342076;28;1256;-79
2023/07/18 00:07:45;;;;;;;;;;;;;;;27.16;50.11;99642.25;342213;28;1259;-79
2023/07/18 00:07:56;;;;;;;;;;;;;;;27.13;49.73;99645.25;343891;28;1180;-79
2023/07/18 00:08:06;;;;;;;;;;;;;;;27.14;49.52;99638.88;343637;28;908;-79
2023/07/18 00:08:16;;;;;;;;;;;;;;;27.12;49.55;99647.09;344615;28;923;-79
2023/07/18 00:08:27;;;;;;;;;;;;;;;27.12;49.28;99640.91;340723;28;1257;-79
2023/07/18 00:08:39;;;;;;;;;;;;;;;27.12;49.36;99646.28;340903;29;1205;-78
2023/07/18 00:08:49;;;;;;;;;;;;;;;27.11;49.38;99639.22;339711;29;1402;-78
2023/07/18 00:08:59;;;;;;;;;;;;;;;27.12;49.71;99643.59;340854;29;1284;-78
2023/07/18 00:09:09;;;;;;;;;;;;;;;27.10;49.22;99649.13;342039;28;1415;-78
2023/07/18 00:09:20;;;;;;;;;;;;;;;27.09;49.58;99638.53;339640;29;1365;-78
2023/07/18 00:09:31;;;;;;;;;;;;;;;27.07;49.02;99644.09;339322;28;1388;-78
2023/07/18 00:09:41;;;;;;;;;;;;;;;27.04;49.59;99641.72;341922;28;1384;-78
2023/07/18 00:09:52;;;;;;;;;;;;;;;27.04;49.33;99643.56;341076;29;781;-78
2023/07/18 00:10:03;;;;;;;;;;;;;;;27.02;49.54;99645.59;335393;29;1539;-78
2023/07/18 00:10:13;;;;;;;;;;;;;;;27.02;49.42;99641.06;339210;28;1484;-78
2023/07/18 00:10:23;;;;;;;;;;;;;;;26.97;49.45;99647.94;341852;28;2894;-79
2023/07/18 00:10:34;;;;;;;;;;;;;;;26.88;49.73;99643.53;337261;29;2911;-79
2023/07/18 00:10:44;;;;;;;;;;;;;;;26.81;49.89;99646.91;338218;29;3021;-79
2023/07/18 00:10:54;;;;;;;;;;;;;;;26.76;49.83;99646.56;336734;29;1437;-79
2023/07/18 00:11:04;;;;;;;;;;;;;;;26.74;49.68;99642.34;340914;29;3678;-79
2023/07/18 00:11:15;;;;;;;;;;;;;;;26.69;49.74;99647.38;339251;28;1507;-79
2023/07/18 00:11:25;;;;;;;;;;;;;;;26.63;49.92;99646.19;336118;29;1612;-79
2023/07/18 00:11:36;;;;;;;;;;;;;;;26.60;49.92;99641.16;333356;29;1317;-79
2023/07/18 00:11:47;;;;;;;;;;;;;;;26.58;49.88;99650.38;333516;29;1480;-79
2023/07/18 00:11:57;;;;;;;;;;;;;;;26.56;50.23;99650.53;335398;29;1718;-79
2023/07/18 00:12:08;;;;;;;;;;;;;;;26.57;49.85;99641.47;331841;29;1326;-78
2023/07/18 00:12:18;;;;;;;;;;;;;;;26.59;49.57;99635.94;334043;29;2000;-78
2023/07/18 00:12:29;;;;;;;;;;;;;;;26.63;50.45;99646.19;333088;29;1560;-78
2023/07/18 00:12:39;;;;;;;;;;;;;;;26.67;50.34;99642.16;331869;29;1213;-78
2023/07/18 00:12:50;;;;;;;;;;;;;;;26.72;49.62;99650.56;330732;29;795;-78
2023/07/18 00:13:00;;;;;;;;;;;;;;;26.76;50.91;99640.34;328476;30;1264;-78
2023/07/18 00:13:10;;;;;;;;;;;;;;;26.79;52.23;99645.38;328115;30;1475;-78
2023/07/18 00:13:20;;;;;;;;;;;;;;;26.81;51.93;99649.59;330623;29;1304;-78
2023/07/18 00:13:31;;;;;;;;;;;;;;;26.83;50.42;99642.22;330182;29;2284;-78
2023/07/18 00:13:41;;;;;;;;;;;;;;;26.86;50.07;99646.38;330445;29;2369;-78
2023/07/18 00:13:52;;;;;;;;;;;;;;;26.91;50.70;99641.34;330555;29;1258;-78
2023/07/18 00:14:02;;;;;;;;;;;;;;;26.94;50.63;99642.84;329928;29;2310;-78
2023/07/18 00:14:12;;;;;;;;;;;;;;;26.97;51.88;99654.16;326947;30;2310;-78
2023/07/18 00:14:23;;;;;;;;;;;;;;;27.00;51.83;99652.97;323289;30;1208;-78
2023/07/18 00:14:33;;;;;;;;;;;;;;;27.02;52.17;99645.59;324296;30;2471;-78
2023/07/18 00:14:43;;;;;;;;;;;;;;;27.04;52.33;99648.94;321960;30;1940;-78
2023/07/18 00:14:53;;;;;;;;;;;;;;;27.07;52.08;99654.00;319880;30;1683;-78
2023/07/18 00:15:04;;;;;;;;;;;;;;;27.08;52.50;99652.97;320698;30;1317;-78
2023/07/18 00:15:15;;;;;;;;;;;;;;;27.08;51.74;99650.28;321843;30;1670;-78
2023/07/18 00:15:25;;;;;;;;;;;;;;;27.10;51.77;99659.03;322648;30;2341;-78
2023/07/18 00:15:35;;;;;;;;;;;;;;;27.11;51.33;99652.66;321011;30;1259;-78
2023/07/18 00:15:46;;;;;;;;;;;;;;;27.11;51.13;99650.81;322376;30;2661;-78
2023/07/18 00:15:56;;;;;;;;;;;;;;;27.09;49.49;99646.59;321386;30;3412;-78
2023/07/18 00:16:08;;;;;;;;;;;;;;;27.03;49.42;99653.47;317586;31;1200;-78
2023/07/18 00:16:18;;;;;;;;;;;;;;;26.97;49.28;99653.31;313611;31;3366;-78
2023/07/18 00:16:28;;;;;;;;;;;;;;;26.92;49.12;99650.25;315252;31;3187;-78
2023/07/18 00:16:39;;;;;;;;;;;;;;;26.86;49.50;99651.75;314030;31;1326;-78
2023/07/18 00:16:50;;;;;;;;;;;;;;;26.77;49.83;99652.78;312014;31;878;-78
2023/07/18 00:17:00;;;;;;;;;;;;;;;26.72;49.71;99653.25;312097;31;2623;-78
2023/07/18 00:17:10;;;;;;;;;;;;;;;26.69;49.72;99645.53;312536;31;2227;-78
2023/07/18 00:17:21;;;;;;;;;;;;;;;26.67;49.94;99652.91;311957;31;818;-78
2023/07/18 00:17:32;;;;;;;;;;;;;;;26.69;49.83;99644.69;312862;31;3240;-79
2023/07/18 00:17:43;;;;;;;;;;;;;;;26.70;49.69;99647.22;310537;31;3022;-79
2023/07/18 00:17:54;;;;;;;;;;;;;;;26.71;49.73;99646.22;308743;32;1329;-79
2023/07/18 00:18:04;;;;;;;;;;;;;;;26.68;49.80;99643.84;307598;31;4016;-79
2023/07/18 00:18:15;;;;;;;;;;;;;;;26.62;49.59;99649.88;302634;32;4974;-79
2023/07/18 00:18:25;;;;;;;;;;;;;;;26.59;49.67;99639.47;300265;32;4713;-79
2023/07/18 00:18:35;;;;;;;;;;;;;;;26.57;49.89;99641.47;301943;32;1208;-79
2023/07/18 00:18:45;;;;;;;;;;;;;;;26.57;50.05;99644.16;301495;32;4367;-79
2023/07/18 00:18:56;;;;;;;;;;;;;;;26.57;49.77;99646.84;299995;32;4229;-79
2023/07/18 00:19:06;;;;;;;;;;;;;;;26.59;49.75;99641.31;301210;32;1328;-79
2023/07/18 00:19:17;;;;;;;;;;;;;;;26.61;49.54;99636.63;299960;32;3064;-79
2023/07/18 00:19:29;;;;;;;;;;;;;;;26.62;49.52;99639.13;299088;32;3345;-79
2023/07/18 00:19:39;;;;;;;;;;;;;;;26.62;49.72;99640.97;296666;32;3984;-79
2023/07/18 00:19:50;;;;;;;;;;;;;;;26.62;49.59;99641.81;296472;33;3171;-79
2023/07/18 00:20:00;;;;;;;;;;;;;;;26.63;49.56;99639.97;295324;33;4537;-79
2023/07/18 00:20:13;;;;;;;;;;;;;;;26.61;49.79;99637.47;294073;33;6372;-78
2023/07/18 00:20:25;;;;;;;;;;;;;;;26.59;49.82;99644.84;291333;34;1329;-78
2023/07/18 00:20:35;;;;;;;;;;;;;;;26.62;49.76;99644.50;286596;34;860;-78
2023/07/18 00:20:46;;;;;;;;;;;;;;;26.65;49.85;99638.81;283174;34;6968;-78
2023/07/18 00:20:56;;;;;;;;;;;;;;;26.69;50.58;99639.31;281027;35;7956;-78
2023/07/18 00:21:07;;;;;;;;;;;;;;;26.73;51.63;99646.88;279203;35;1409;-78
2023/07/18 00:21:17;;;;;;;;;;;;;;;26.76;50.89;99641.19;279527;34;6400;-78
2023/07/18 00:21:28;;;;;;;;;;;;;;;26.79;49.69;99648.91;279873;35;4585;-78
2023/07/18 00:21:38;;;;;;;;;;;;;;;26.77;49.50;99639.34;280190;35;3341;-78
2023/07/18 00:21:49;;;;;;;;;;;;;;;26.72;49.93;99644.38;278623;35;5246;-78
2023/07/18 00:21:59;;;;;;;;;;;;;;;26.67;50.27;99631.44;278607;35;6498;-78
2023/07/18 00:22:10;;;;;;;;;;;;;;;26.60;49.86;99637.63;279329;35;7434;-78
2023/07/18 00:22:20;;;;;;;;;;;;;;;26.56;49.96;99633.59;276619;35;1278;-78
2023/07/18 00:22:30;;;;;;;;;;;;;;;26.52;50.30;99641.13;273497;35;8445;-78
2023/07/18 00:24:44;;;;;;;;;;;;;;;26.45;50.39;99640.94;2484441;27;19927;-78
2023/07/18 00:24:54;;;;;;;;;;;;;;;26.44;50.58;99636.56;350820;28;1216;-78
2023/07/18 00:25:04;;;;;;;;;;;;;;;26.46;50.27;99644.47;349232;28;1185;-78
2023/07/18 00:25:19;;;;;;;;;;;;;;;26.45;50.49;99645.47;347544;28;1263;-78
2023/07/18 00:25:29;;;;;;;;;;;;;;;26.39;50.71;99635.41;347665;28;1365;-78
2023/07/18 00:25:40;;;;;;;;;;;;;;;26.39;50.74;99640.78;347677;28;2905;-78
2023/07/18 00:25:50;;;;;;;;;;;;;;;26.41;50.87;99636.09;347604;28;800;-78
2023/07/18 00:26:01;;;;;;;;;;;;;;;26.42;50.72;99637.78;347835;28;820;-78
2023/07/18 00:26:11;;;;;;;;;;;;;;;26.41;50.65;99641.44;347967;28;1443;-79
2023/07/18 00:26:24;;;;;;;;;;;;;;;26.40;50.62;99645.13;347252;28;971;-79
2023/07/18 00:26:34;;;;;;;;;;;;;;;26.37;50.35;99640.94;346326;28;817;-79
2023/07/18 00:26:45;;;;;;;;;;;;;;;26.38;50.43;99641.78;346390;28;1134;-79
2023/07/18 00:26:55;;;;;;;;;;;;;;;26.42;50.05;99643.13;346492;28;1072;-78
2023/07/18 00:27:05;;;;;;;;;;;;;;;26.43;50.19;99642.09;346269;28;1419;-78
2023/07/18 00:27:16;;;;;;;;;;;;;;;26.45;50.05;99646.31;346528;28;1359;-79
2023/07/18 00:27:26;;;;;;;;;;;;;;;26.45;50.08;99649.00;345023;28;1236;-79
2023/07/18 00:27:38;;;;;;;;;;;;;;;26.45;50.08;99645.47;346573;28;844;-79
2023/07/18 00:27:53;;;;;;;;;;;;;;;26.45;50.29;99648.16;349093;28;1337;-79
2023/07/18 00:28:04;;;;;;;;;;;;;;;26.43;50.25;99642.94;350224;28;1263;-79
2023/07/18 00:28:16;;;;;;;;;;;;;;;26.41;50.61;99641.44;350477;28;823;-79
2023/07/18 00:28:26;;;;;;;;;;;;;;;26.40;50.60;99645.13;346124;28;1267;-79
2023/07/18 00:28:37;;;;;;;;;;;;;;;26.39;50.54;99640.78;344624;28;1412;-79
2023/07/18 00:28:47;;;;;;;;;;;;;;;26.40;50.63;99650.50;345024;28;1410;-79
2023/07/18 00:28:58;;;;;;;;;;;;;;;26.38;50.49;99641.78;345471;28;1323;-79
2023/07/18 00:29:09;;;;;;;;;;;;;;;26.40;50.57;99645.97;346367;28;1377;-79
2023/07/18 00:29:20;;;;;;;;;;;;;;;26.42;50.39;99651.19;347606;28;1364;-79
2023/07/18 00:29:30;;;;;;;;;;;;;;;26.43;50.32;99647.47;344903;28;1269;-79
2023/07/18 00:29:40;;;;;;;;;;;;;;;26.42;50.50;99643.97;345078;28;1203;-79
2023/07/18 00:29:51;;;;;;;;;;;;;;;26.43;50.64;99647.47;344842;28;1149;-79
2023/07/18 00:30:02;;;;;;;;;;;;;;;26.44;50.28;99649.16;344994;28;1228;-79
2023/07/18 00:30:12;;;;;;;;;;;;;;;26.46;50.48;99644.47;346270;28;1111;-78
2023/07/18 00:30:22;;;;;;;;;;;;;;;26.48;50.20;99647.81;342845;28;1308;-78
2023/07/18 00:30:33;;;;;;;;;;;;;;;26.50;50.22;99646.66;342230;28;1326;-78
2023/07/18 00:30:43;;;;;;;;;;;;;;;26.52;49.95;99646.50;343517;28;1309;-78
2023/07/18 00:30:53;;;;;;;;;;;;;;;26.54;49.83;99652.53;342996;28;956;-78
2023/07/18 00:31:03;;;;;;;;;;;;;;;26.50;49.95;99641.28;343884;28;1507;-78
2023/07/18 00:31:14;;;;;;;;;;;;;;;26.52;50.03;99647.34;346276;28;1380;-78
2023/07/18 00:31:24;;;;;;;;;;;;;;;26.54;50.07;99647.16;345493;28;1258;-79
2023/07/18 00:31:34;;;;;;;;;;;;;;;26.57;50.51;99646.00;343008;28;1181;-79
2023/07/18 00:31:44;;;;;;;;;;;;;;;26.59;50.90;99649.38;343638;28;1337;-79
2023/07/18 00:31:56;;;;;;;;;;;;;;;26.60;50.53;99645.69;346157;28;1319;-79
2023/07/18 00:32:06;;;;;;;;;;;;;;;26.61;50.69;99650.88;347531;28;1293;-79
2023/07/18 00:32:17;;;;;;;;;;;;;;;26.58;50.17;99645.84;345119;28;840;-79
2023/07/18 00:32:27;;;;;;;;;;;;;;;26.56;50.11;99647.84;343427;28;1246;-79
2023/07/18 00:32:37;;;;;;;;;;;;;;;26.56;50.09;99639.78;342182;28;1311;-79
2023/07/18 00:32:47;;;;;;;;;;;;;;;26.53;50.46;99645.50;342355;28;1065;-79
2023/07/18 00:32:57;;;;;;;;;;;;;;;26.50;50.44;99643.13;347176;28;1395;-79
2023/07/18 00:33:08;;;;;;;;;;;;;;;26.49;50.07;99644.13;343357;28;1214;-79
2023/07/18 00:33:18;;;;;;;;;;;;;;;26.49;50.16;99649.50;341929;28;1397;-79
2023/07/18 00:33:28;;;;;;;;;;;;;;;26.49;50.24;99646.81;339593;29;1635;-78
2023/07/18 00:33:39;;;;;;;;;;;;;;;26.48;50.03;99643.28;340302;28;1935;-78
2023/07/18 00:33:49;;;;;;;;;;;;;;;26.48;50.26;99648.66;342171;28;1217;-78
2023/07/18 00:33:59;;;;;;;;;;;;;;;26.49;50.08;99642.28;342237;28;952;-78
2023/07/18 00:34:10;;;;;;;;;;;;;;;26.49;49.99;99644.13;340175;29;1363;-78
2023/07/18 00:34:21;;;;;;;;;;;;;;;26.49;50.19;99638.75;340275;28;837;-78
2023/07/18 00:34:31;;;;;;;;;;;;;;;26.51;50.03;99642.13;338195;29;1246;-78
2023/07/18 00:34:41;;;;;;;;;;;;;;;26.51;50.28;99642.13;338286;29;1528;-78
2023/07/18 00:34:56;;;;;;;;;;;;;;;26.54;50.09;99647.16;334283;29;1689;-78
2023/07/18 00:35:07;;;;;;;;;;;;;;;26.56;50.22;99642.47;334884;29;1864;-78
2023/07/18 00:35:17;;;;;;;;;;;;;;;26.57;50.12;99641.47;334665;29;1344;-78
2023/07/18 00:35:28;;;;;;;;;;;;;;;26.59;50.14;99650.22;332990;29;1305;-78
2023/07/18 00:35:38;;;;;;;;;;;;;;;26.62;51.08;99644.50;332832;29;1918;-78
2023/07/18 00:35:48;;;;;;;;;;;;;;;26.64;52.04;99641.66;334430;29;1523;-78
2023/07/18 00:35:58;;;;;;;;;;;;;;;26.63;50.66;99646.19;334468;29;1200;-78
2023/07/18 00:36:09;;;;;;;;;;;;;;;26.61;50.05;99641.97;335154;29;952;-78
2023/07/18 00:36:19;;;;;;;;;;;;;;;26.61;50.07;99641.97;333235;29;1211;-78
2023/07/18 00:36:29;;;;;;;;;;;;;;;26.60;50.16;99637.63;337060;29;1310;-78
2023/07/18 00:36:39;;;;;;;;;;;;;;;26.59;50.32;99639.47;337142;29;1921;-78
2023/07/18 00:36:55;;;;;;;;;;;;;;;26.59;49.99;99639.47;338601;29;2050;-78
2023/07/18 00:37:06;;;;;;;;;;;;;;;26.60;50.19;99640.31;333801;29;2356;-78
2023/07/18 00:37:17;;;;;;;;;;;;;;;26.59;49.76;99644.84;327086;30;1351;-78
2023/07/18 00:37:27;;;;;;;;;;;;;;;26.59;50.19;99642.16;328790;29;2510;-78
2023/07/18 00:37:38;;;;;;;;;;;;;;;26.59;49.99;99642.16;330520;29;2379;-78
2023/07/18 00:37:48;;;;;;;;;;;;;;;26.56;50.14;99638.94;330371;29;2429;-78
2023/07/18 00:37:58;;;;;;;;;;;;;;;26.54;50.35;99635.59;329331;29;1333;-78
2023/07/18 00:38:11;;;;;;;;;;;;;;;26.55;49.95;99643.47;328419;29;3571;-78
2023/07/18 00:38:21;;;;;;;;;;;;;;;26.58;51.25;99640.47;324870;30;2996;-78
2023/07/18 00:38:32;;;;;;;;;;;;;;;26.60;51.85;99641.16;324740;30;3171;-78
2023/07/18 00:38:42;;;;;;;;;;;;;;;26.60;51.49;99641.16;325989;30;3194;-78
2023/07/18 00:38:52;;;;;;;;;;;;;;;26.60;50.67;99638.47;326432;30;2303;-78
2023/07/18 00:39:03;;;;;;;;;;;;;;;26.59;50.38;99644.84;322717;30;2735;-78
2023/07/18 00:39:13;;;;;;;;;;;;;;;26.59;50.33;99633.25;327015;30;1122;-78
2023/07/18 00:39:24;;;;;;;;;;;;;;;26.59;50.22;99644.00;321363;30;3324;-78
2023/07/18 00:39:34;;;;;;;;;;;;;;;26.58;50.07;99637.78;319988;30;3835;-78
2023/07/18 00:39:44;;;;;;;;;;;;;;;26.59;50.62;99636.78;324595;30;1245;-78
2023/07/18 00:39:54;;;;;;;;;;;;;;;26.60;49.97;99637.63;327918;30;2893;-78
2023/07/18 00:40:11;;;;;;;;;;;;;;;26.57;50.35;99641.47;324843;30;2910;-79
2023/07/18 00:40:21;;;;;;;;;;;;;;;26.56;50.41;99639.78;323394;30;2181;-79
2023/07/18 00:40:31;;;;;;;;;;;;;;;26.52;50.36;99641.97;324430;30;1428;-79
2023/07/18 00:40:41;;;;;;;;;;;;;;;26.46;50.84;99636.41;321664;30;2248;-79
2023/07/18 00:40:52;;;;;;;;;;;;;;;26.44;50.61;99638.41;319505;30;2585;-78
2023/07/18 00:41:04;;;;;;;;;;;;;;;26.39;50.83;99638.09;318823;31;1015;-78
2023/07/18 00:41:14;;;;;;;;;;;;;;;26.41;50.53;99641.44;315257;31;1305;-78
2023/07/18 00:41:25;;;;;;;;;;;;;;;26.41;50.60;99641.44;309146;31;4525;-79
2023/07/18 00:41:35;;;;;;;;;;;;;;;26.40;50.50;99637.09;307514;31;4616;-79
2023/07/18 00:41:45;;;;;;;;;;;;;;;26.40;51.36;99634.41;310981;31;819;-80
2023/07/18 00:41:55;;;;;;;;;;;;;;;26.40;50.66;99634.41;306053;31;4841;-77
2023/07/18 00:42:06;;;;;;;;;;;;;;;26.40;50.67;99631.72;304334;32;4169;-77
2023/07/18 00:42:16;;;;;;;;;;;;;;;26.40;50.61;99635.25;302231;32;1124;-77
2023/07/18 00:42:26;;;;;;;;;;;;;;;26.43;50.69;99634.03;302438;32;3806;-78
2023/07/18 00:42:37;;;;;;;;;;;;;;;26.45;50.52;99634.72;299217;32;3185;-79
2023/07/18 00:42:47;;;;;;;;;;;;;;;26.46;50.43;99633.72;296199;33;1172;-79
2023/07/18 00:42:57;;;;;;;;;;;;;;;26.46;50.17;99629.19;299516;32;3636;-79
2023/07/18 00:43:14;;;;;;;;;;;;;;;26.48;50.48;99631.72;297275;32;4013;-79
2023/07/18 00:43:24;;;;;;;;;;;;;;;26.49;50.57;99633.41;295414;33;5540;-79
2023/07/18 00:43:34;;;;;;;;;;;;;;;26.45;50.92;99637.41;293637;33;6934;-79
2023/07/18 00:43:45;;;;;;;;;;;;;;;26.41;50.86;99636.09;292381;33;854;-79
2023/07/18 00:43:55;;;;;;;;;;;;;;;26.38;50.87;99631.03;291676;33;6215;-79
2023/07/18 00:44:05;;;;;;;;;;;;;;;26.33;51.12;99630.69;290180;33;7517;-79
2023/07/18 00:44:16;;;;;;;;;;;;;;;26.30;50.83;99631.81;289383;34;1251;-79
2023/07/18 00:44:26;;;;;;;;;;;;;;;26.29;51.37;99631.97;289743;33;7804;-79
2023/07/18 00:44:36;;;;;;;;;;;;;;;26.26;51.10;99633.16;288892;33;5725;-79
2023/07/18 00:44:48;;;;;;;;;;;;;;;26.27;51.15;99626.78;287675;34;1257;-79
2023/07/18 00:44:58;;;;;;;;;;;;;;;26.25;51.30;99630.63;283783;34;846;-78
2023/07/18 00:45:08;;;;;;;;;;;;;;;26.25;50.93;99633.31;284194;34;4753;-79
2023/07/18 00:45:19;;;;;;;;;;;;;;;26.26;51.59;99633.16;284297;34;6108;-79
2023/07/18 00:45:29;;;;;;;;;;;;;;;26.29;51.14;99631.97;280784;35;1416;-79
2023/07/18 00:45:40;;;;;;;;;;;;;;;26.29;51.66;99627.47;276872;35;8131;-79
2023/07/18 00:45:51;;;;;;;;;;;;;;;26.30;51.44;99633.66;276654;35;9337;-79
2023/07/18 00:46:01;;;;;;;;;;;;;;;26.32;51.45;99637.91;277513;35;1347;-79
2023/07/18 00:46:11;;;;;;;;;;;;;;;26.34;51.36;99629.69;278548;35;8979;-79
2023/07/18 00:46:21;;;;;;;;;;;;;;;26.34;51.12;99629.69;277021;35;11530;-79
2023/07/18 00:46:35;;;;;;;;;;;;;;;26.36;51.50;99638.41;276168;35;1371;-79
2023/07/18 00:48:27;;;;;;;;;;;;;;;26.35;51.29;99626.00;2496205;27;20213;-79
2023/07/18 00:48:37;;;;;;;;;;;;;;;26.37;51.02;99637.41;350918;27;1474;-79
2023/07/18 00:48:47;;;;;;;;;;;;;;;26.35;51.09;99634.06;353147;28;1241;-79
2023/07/18 00:48:58;;;;;;;;;;;;;;;26.38;50.99;99631.03;350510;28;1104;-79
2023/07/18 00:49:08;;;;;;;;;;;;;;;26.40;51.11;99634.41;350392;28;1281;-79
2023/07/18 00:49:18;;;;;;;;;;;;;;;26.40;51.00;99637.09;350384;28;1218;-79
2023/07/18 00:49:29;;;;;;;;;;;;;;;26.41;50.72;99630.72;347785;28;1405;-79
2023/07/18 00:49:39;;;;;;;;;;;;;;;26.39;50.75;99638.94;349099;28;1396;-79
2023/07/18 00:49:50;;;;;;;;;;;;;;;26.39;51.23;99633.56;349634;28;1288;-79
2023/07/18 00:50:00;;;;;;;;;;;;;;;26.39;50.94;99638.09;350566;28;1241;-79
2023/07/18 00:50:11;;;;;;;;;;;;;;;26.41;51.70;99641.44;350354;28;1222;-79
2023/07/18 00:50:21;;;;;;;;;;;;;;;26.42;52.06;99635.91;350421;28;1314;-79
2023/07/18 00:50:32;;;;;;;;;;;;;;;26.41;51.09;99639.59;348339;28;1296;-79
2023/07/18 00:50:42;;;;;;;;;;;;;;;26.42;51.02;99640.44;347669;28;1255;-79
2023/07/18 00:50:52;;;;;;;;;;;;;;;26.43;51.04;99634.03;347517;28;1234;-79
2023/07/18 00:51:07;;;;;;;;;;;;;;;26.44;51.11;99639.25;347505;28;1326;-79
2023/07/18 00:51:17;;;;;;;;;;;;;;;26.47;51.86;99638.09;346295;28;1421;-79
2023/07/18 00:51:27;;;;;;;;;;;;;;;26.49;52.80;99636.91;346397;28;702;-79
2023/07/18 00:51:37;;;;;;;;;;;;;;;26.52;52.61;99638.44;346400;28;1366;-79
2023/07/18 00:51:48;;;;;;;;;;;;;;;26.54;52.75;99636.44;346709;28;1231;-79
2023/07/18 00:51:58;;;;;;;;;;;;;;;26.55;52.70;99638.09;350445;28;1190;-79
2023/07/18 00:52:08;;;;;;;;;;;;;;;26.57;53.28;99636.09;351540;28;1525;-79
2023/07/18 00:52:19;;;;;;;;;;;;;;;26.59;53.04;99634.09;351693;28;1381;-79
2023/07/18 00:52:29;;;;;;;;;;;;;;;26.60;53.07;99635.78;349783;28;1209;-79
2023/07/18 00:52:43;;;;;;;;;;;;;;;26.62;53.14;99635.59;347930;28;1174;-79
2023/07/18 00:52:54;;;;;;;;;;;;;;;26.64;53.58;99630.91;346167;28;1330;-79
2023/07/18 00:53:04;;;;;;;;;;;;;;;26.65;53.91;99638.81;346182;28;876;-79
2023/07/18 00:53:14;;;;;;;;;;;;;;;26.66;53.95;99640.50;347652;28;1346;-79
2023/07/18 00:53:25;;;;;;;;;;;;;;;26.69;53.38;99639.31;346292;28;1223;-79
2023/07/18 00:53:35;;;;;;;;;;;;;;;26.68;53.27;99643.84;347683;28;1200;-79
2023/07/18 00:53:45;;;;;;;;;;;;;;;26.68;53.12;99626.91;347567;28;1229;-79
2023/07/18 00:53:56;;;;;;;;;;;;;;;26.70;53.39;99631.09;347863;28;1334;-79
2023/07/18 00:54:06;;;;;;;;;;;;;;;26.71;53.56;99635.47;346174;28;1325;-79
2023/07/18 00:54:17;;;;;;;;;;;;;;;26.72;53.39;99631.78;342110;28;1345;-79
2023/07/18 00:54:27;;;;;;;;;;;;;;;26.73;54.04;99633.47;341036;29;1285;-79
2023/07/18 00:54:38;;;;;;;;;;;;;;;26.74;53.68;99631.63;343172;28;1380;-79
2023/07/18 00:54:48;;;;;;;;;;;;;;;26.73;53.27;99630.78;341979;28;1358;-80
2023/07/18 00:54:58;;;;;;;;;;;;;;;26.74;52.25;99629.75;342286;28;1563;-79
2023/07/18 00:55:09;;;;;;;;;;;;;;;26.71;51.19;99632.78;343760;28;1157;-79
2023/07/18 00:55:19;;;;;;;;;;;;;;;26.69;51.06;99633.94;344014;28;1176;-79
2023/07/18 00:55:30;;;;;;;;;;;;;;;26.67;50.79;99626.06;342233;28;1238;-79
2023/07/18 00:55:40;;;;;;;;;;;;;;;26.65;50.90;99630.75;342371;28;884;-79
2023/07/18 00:55:50;;;;;;;;;;;;;;;26.63;50.71;99624.72;344072;28;1182;-79
2023/07/18 00:56:00;;;;;;;;;;;;;;;26.61;50.56;99632.09;346301;28;1175;-79
2023/07/18 00:56:11;;;;;;;;;;;;;;;26.60;50.64;99632.25;345055;28;979;-79
2023/07/18 00:56:21;;;;;;;;;;;;;;;26.60;50.62;99634.94;344798;28;1705;-79
2023/07/18 00:56:31;;;;;;;;;;;;;;;26.60;52.06;99632.25;344541;28;1429;-79
2023/07/18 00:56:42;;;;;;;;;;;;;;;26.58;51.38;99629.72;339156;28;2923;-79
2023/07/18 00:56:52;;;;;;;;;;;;;;;26.58;51.29;99629.72;337449;28;3041;-79
2023/07/18 00:57:02;;;;;;;;;;;;;;;26.58;51.06;99628.88;336081;29;3499;-80
2023/07/18 00:57:12;;;;;;;;;;;;;;;26.57;50.98;99628.03;338468;29;3381;-80
2023/07/18 00:57:23;;;;;;;;;;;;;;;26.57;51.86;99630.72;340937;28;1332;-80
2023/07/18 00:57:35;;;;;;;;;;;;;;;26.58;51.24;99628.88;339539;29;1218;-80
2023/07/18 00:57:45;;;;;;;;;;;;;;;26.55;50.84;99627.38;337305;29;1248;-79
2023/07/18 00:57:58;;;;;;;;;;;;;;;26.54;51.12;99625.69;338139;29;1713;-79
2023/07/18 00:58:08;;;;;;;;;;;;;;;26.52;50.76;99631.22;339109;29;1394;-79
2023/07/18 00:58:19;;;;;;;;;;;;;;;26.52;50.71;99633.06;340618;28;2235;-79
2023/07/18 00:58:30;;;;;;;;;;;;;;;26.51;50.87;99629.53;342174;28;1459;-79
2023/07/18 00:58:40;;;;;;;;;;;;;;;26.52;51.11;99627.69;339667;29;1393;-79
2023/07/18 00:58:50;;;;;;;;;;;;;;;26.52;50.70;99633.06;342254;28;1461;-79
2023/07/18 00:59:01;;;;;;;;;;;;;;;26.52;50.93;99633.06;338238;29;2123;-79
2023/07/18 00:59:11;;;;;;;;;;;;;;;26.51;51.17;99626.03;338297;29;1434;-79
2023/07/18 00:59:22;;;;;;;;;;;;;;;26.50;51.80;99629.72;335381;29;2109;-79
2023/07/18 00:59:32;;;;;;;;;;;;;;;26.50;51.49;99629.72;335399;29;1564;-79
2023/07/18 00:59:42;;;;;;;;;;;;;;;26.51;52.05;99626.03;340852;29;1472;-79
2023/07/18 00:59:53;;;;;;;;;;;;;;;26.51;51.27;99631.38;338193;29;1202;-79
2023/07/18 01:00:10;;;;;;;;;;;;;;;26.48;51.32;99626.34;336808;29;1149;-79
2023/07/18 01:00:22;;;;;;;;;;;;;;;26.51;51.86;99631.38;338345;29;1853;-79
2023/07/18 01:00:33;;;;;;;;;;;;;;;26.52;52.01;99627.69;337554;29;2202;-79
2023/07/18 01:00:43;;;;;;;;;;;;;;;26.52;51.33;99628.53;336875;29;1358;-79
2023/07/18 01:00:54;;;;;;;;;;;;;;;26.53;50.94;99629.38;335869;29;2082;-79
2023/07/18 01:01:04;;;;;;;;;;;;;;;26.55;51.33;99631.91;332320;29;1789;-79
2023/07/18 01:01:14;;;;;;;;;;;;;;;26.56;52.25;99629.06;334106;29;2359;-79
2023/07/18 01:01:25;;;;;;;;;;;;;;;26.59;52.83;99633.25;335723;29;1132;-79
2023/07/18 01:01:35;;;;;;;;;;;;;;;26.58;51.42;99629.72;333877;29;2730;-79
2023/07/18 01:01:46;;;;;;;;;;;;;;;26.59;52.57;99623.34;332167;29;1805;-79
2023/07/18 01:01:56;;;;;;;;;;;;;;;26.60;53.23;99627.72;335774;29;977;-79